Time;durP1;ratioP1;P1;durP2;ratioP2;P2;SDS_P1;SDS_P2;PMS_P1;PMS_P2;Temp;Humidity;BMP_temperature;BMP_pressure;BME280_temperature;BME280_humidity;BME280_pressure;Samples;Min_cycle;Max_cycle;Signal;HPM_P1;HPM_P2
2021/10/25 00:01:07;;;;;;;9.45;8.00;;;8.30;72.80;;;;;;5091598;28;20032;-74
2021/10/25 00:03:33;;;;;;;9.98;7.50;;;8.20;72.80;;;;;;5085694;28;20028;-74
2021/10/25 00:05:59;;;;;;;8.77;7.72;;;8.20;72.80;;;;;;5089468;28;20089;-71
2021/10/25 00:08:24;;;;;;;9.20;7.68;;;8.20;72.90;;;;;;5090948;28;20111;-71
2021/10/25 00:10:50;;;;;;;9.52;7.93;;;8.10;73.00;;;;;;5090357;28;20059;-70
2021/10/25 00:13:16;;;;;;;9.38;7.45;;;8.10;72.90;;;;;;5070304;28;20046;-70
2021/10/25 00:15:42;;;;;;;9.48;7.85;;;8.10;72.90;;;;;;5072542;28;20043;-70
2021/10/25 00:18:08;;;;;;;12.48;7.80;;;8.10;73.00;;;;;;5086081;28;20059;-70
2021/10/25 00:20:34;;;;;;;11.52;7.70;;;8.00;73.00;;;;;;5051704;28;20491;-73
2021/10/25 00:23:00;;;;;;;8.35;7.00;;;8.00;73.10;;;;;;5084560;28;20467;-70
2021/10/25 00:25:25;;;;;;;9.90;7.85;;;8.00;73.10;;;;;;5075638;28;20016;-74
2021/10/25 00:27:51;;;;;;;9.13;7.88;;;7.90;73.10;;;;;;5098357;28;20113;-74
2021/10/25 00:30:17;;;;;;;10.45;7.35;;;7.90;73.50;;;;;;5074489;28;20077;-70
2021/10/25 00:32:43;;;;;;;10.50;7.10;;;7.90;73.20;;;;;;5090253;28;20566;-70
2021/10/25 00:35:08;;;;;;;11.57;7.05;;;7.90;73.20;;;;;;5092071;28;20107;-70
2021/10/25 00:37:34;;;;;;;11.32;7.53;;;7.80;73.20;;;;;;5090610;28;20036;-71
2021/10/25 00:40:00;;;;;;;9.38;6.97;;;7.80;73.30;;;;;;5092742;28;20032;-71
2021/10/25 00:42:26;;;;;;;10.57;7.82;;;7.80;73.30;;;;;;5090569;28;20058;-70
2021/10/25 00:44:52;;;;;;;11.02;7.70;;;7.80;73.40;;;;;;5073943;28;20032;-70
2021/10/25 00:47:18;;;;;;;9.43;7.93;;;7.70;73.50;;;;;;5073845;28;20035;-70
2021/10/25 00:49:44;;;;;;;10.13;7.07;;;7.70;73.50;;;;;;5072083;28;20027;-70
2021/10/25 00:52:10;;;;;;;13.02;8.10;;;7.70;73.70;;;;;;5092695;28;20020;-69
2021/10/25 00:54:36;;;;;;;9.70;7.60;;;7.70;73.60;;;;;;5090139;28;20475;-70
2021/10/25 00:57:04;;;;;;;10.23;7.43;;;7.60;73.60;;;;;;5093410;28;20044;-69
2021/10/25 00:59:30;;;;;;;10.23;7.85;;;7.60;73.60;;;;;;5089809;28;20070;-74
2021/10/25 01:01:56;;;;;;;9.35;7.50;;;7.60;73.60;;;;;;5072437;28;20032;-74
2021/10/25 01:04:23;;;;;;;9.18;7.85;;;7.60;73.70;;;;;;5071276;28;20525;-74
2021/10/25 01:06:48;;;;;;;12.80;7.07;;;7.60;73.80;;;;;;5091123;28;20088;-71
2021/10/25 01:09:16;;;;;;;12.90;7.97;;;7.60;74.00;;;;;;5089757;28;20032;-71
2021/10/25 01:11:42;;;;;;;9.70;7.93;;;7.50;74.00;;;;;;5093144;28;20029;-71
2021/10/25 01:14:08;;;;;;;11.35;7.55;;;7.50;74.00;;;;;;5089903;28;20055;-70
2021/10/25 01:16:34;;;;;;;11.82;7.93;;;7.50;74.10;;;;;;5091226;28;20117;-70
2021/10/25 01:19:00;;;;;;;11.13;8.25;;;7.50;74.20;;;;;;5089545;28;20035;-74
2021/10/25 01:21:26;;;;;;;14.07;7.93;;;7.50;74.20;;;;;;5099065;28;20078;-75
2021/10/25 01:23:53;;;;;;;9.80;7.28;;;7.40;74.30;;;;;;5072057;28;20055;-74
2021/10/25 01:26:23;;;;;;;11.45;8.25;;;7.40;74.40;;;;;;5093395;28;20110;-74
2021/10/25 01:28:52;;;;;;;9.80;8.00;;;7.40;74.40;;;;;;5071764;28;20181;-74
2021/10/25 01:31:19;;;;;;;9.10;7.20;;;7.40;74.50;;;;;;5072426;28;20226;-74
2021/10/25 01:33:46;;;;;;;9.13;7.60;;;7.40;74.40;;;;;;5074420;28;20115;-75
2021/10/25 01:36:12;;;;;;;10.52;7.07;;;7.40;74.60;;;;;;5071713;28;20055;-74
2021/10/25 01:38:37;;;;;;;10.50;7.15;;;7.40;74.60;;;;;;5075006;28;20027;-74
2021/10/25 01:41:03;;;;;;;11.40;7.85;;;7.30;74.60;;;;;;5072344;28;20050;-74
2021/10/25 01:43:30;;;;;;;9.90;8.32;;;7.30;74.60;;;;;;5073776;28;20398;-74
2021/10/25 01:45:56;;;;;;;10.73;7.47;;;7.30;74.80;;;;;;5070976;28;20036;-75
2021/10/25 01:48:22;;;;;;;7.82;6.95;;;7.30;74.90;;;;;;5075451;28;20067;-75
2021/10/25 01:50:48;;;;;;;10.73;8.50;;;7.30;74.90;;;;;;5088760;28;20467;-74
2021/10/25 01:53:15;;;;;;;8.70;7.63;;;7.30;75.10;;;;;;5091463;28;20501;-75
2021/10/25 01:55:41;;;;;;;8.95;7.97;;;7.20;75.10;;;;;;5090775;28;20433;-74
2021/10/25 01:58:07;;;;;;;9.73;7.82;;;7.20;75.10;;;;;;5071300;28;20089;-74
2021/10/25 02:00:33;;;;;;;9.88;7.75;;;7.30;75.20;;;;;;5092747;28;20032;-75
2021/10/25 02:02:59;;;;;;;10.68;7.70;;;7.20;75.20;;;;;;5070811;28;20035;-73
2021/10/25 02:05:25;;;;;;;9.10;7.53;;;7.20;75.20;;;;;;5087815;28;20028;-74
2021/10/25 02:07:51;;;;;;;10.27;8.15;;;7.20;75.20;;;;;;5076493;28;20063;-74
2021/10/25 02:10:17;;;;;;;9.52;7.82;;;7.20;75.50;;;;;;5090891;28;20030;-74
2021/10/25 02:12:42;;;;;;;11.75;8.13;;;7.20;75.70;;;;;;5090641;28;20066;-74
2021/10/25 02:15:08;;;;;;;10.85;8.23;;;7.20;76.60;;;;;;5090736;28;20042;-75
2021/10/25 02:17:34;;;;;;;10.73;8.07;;;7.30;76.30;;;;;;5097032;28;20387;-74
2021/10/25 02:20:01;;;;;;;11.02;8.63;;;7.30;76.60;;;;;;5087378;28;20070;-74
2021/10/25 02:22:27;;;;;;;10.63;8.20;;;7.30;77.00;;;;;;5052774;28;20032;-74
2021/10/25 02:24:53;;;;;;;10.82;8.07;;;7.40;77.30;;;;;;5085966;28;20028;-73
2021/10/25 02:27:19;;;;;;;13.15;8.68;;;7.40;77.70;;;;;;5098873;28;20035;-74
2021/10/25 02:29:45;;;;;;;12.77;9.25;;;7.40;78.00;;;;;;5089072;28;20028;-74
2021/10/25 02:32:15;;;;;;;10.43;8.48;;;7.50;78.50;;;;;;5085020;28;20028;-74
2021/10/25 02:34:42;;;;;;;10.32;8.60;;;7.50;78.80;;;;;;5092315;28;20028;-73
2021/10/25 02:37:08;;;;;;;10.38;8.80;;;7.60;79.00;;;;;;5084564;28;20081;-75
2021/10/25 02:39:34;;;;;;;10.10;8.50;;;7.60;79.10;;;;;;5074210;28;20483;-75
2021/10/25 02:41:59;;;;;;;11.85;8.77;;;7.60;79.40;;;;;;5102652;28;20446;-75
2021/10/25 02:44:26;;;;;;;14.25;8.63;;;7.70;79.50;;;;;;5074297;28;20070;-74
2021/10/25 02:46:53;;;;;;;12.52;8.95;;;7.70;79.70;;;;;;5074610;28;20031;-74
2021/10/25 02:49:19;;;;;;;13.10;8.40;;;7.70;79.90;;;;;;5092603;28;20027;-74
2021/10/25 02:51:45;;;;;;;15.05;8.57;;;7.80;80.30;;;;;;5093539;28;20027;-72
2021/10/25 02:54:11;;;;;;;11.20;9.00;;;7.80;80.40;;;;;;5092183;28;20016;-74
2021/10/25 02:56:36;;;;;;;13.63;9.20;;;7.80;80.40;;;;;;5093292;28;20471;-74
2021/10/25 02:59:08;;;;;;;11.75;9.32;;;7.90;80.60;;;;;;5074859;28;20032;-71
2021/10/25 03:01:34;;;;;;;12.23;9.07;;;7.90;80.80;;;;;;5101349;28;20032;-74
2021/10/25 03:04:00;;;;;;;18.63;9.10;;;7.90;80.90;;;;;;5073592;28;20086;-75
2021/10/25 03:06:26;;;;;;;12.55;9.82;;;7.90;81.80;;;;;;5095998;28;20035;-74
2021/10/25 03:08:51;;;;;;;13.85;9.73;;;7.90;81.20;;;;;;5079553;28;20036;-71
2021/10/25 03:11:17;;;;;;;11.65;9.65;;;8.00;81.50;;;;;;5085158;28;20032;-71
2021/10/25 03:13:43;;;;;;;16.75;9.23;;;8.00;81.60;;;;;;5057235;28;20031;-70
2021/10/25 03:16:09;;;;;;;13.45;9.40;;;8.00;81.90;;;;;;5074246;28;20469;-72
2021/10/25 03:18:35;;;;;;;11.00;9.35;;;8.00;82.00;;;;;;5074261;28;20032;-71
2021/10/25 03:21:01;;;;;;;10.60;9.07;;;8.00;82.00;;;;;;5087671;28;20043;-71
2021/10/25 03:23:26;;;;;;;13.10;9.73;;;8.00;82.10;;;;;;5074857;28;20620;-70
2021/10/25 03:25:52;;;;;;;10.75;9.35;;;8.00;82.20;;;;;;5091792;28;20032;-71
2021/10/25 03:28:18;;;;;;;12.68;9.68;;;8.10;82.40;;;;;;5091684;28;20490;-71
2021/10/25 03:30:44;;;;;;;12.05;9.65;;;8.10;82.40;;;;;;5072744;28;20032;-71
2021/10/25 03:33:10;;;;;;;12.18;9.88;;;8.10;82.50;;;;;;5073278;28;20055;-71
2021/10/25 03:35:36;;;;;;;12.90;9.73;;;8.10;82.60;;;;;;5072353;28;20386;-74
2021/10/25 03:38:02;;;;;;;14.65;10.00;;;8.20;82.70;;;;;;5056951;28;20036;-74
2021/10/25 03:40:30;;;;;;;12.30;9.52;;;8.20;82.70;;;;;;5072637;28;20048;-74
2021/10/25 03:42:57;;;;;;;12.80;9.93;;;8.20;82.80;;;;;;5056257;28;20031;-74
2021/10/25 03:45:31;;;;;;;15.25;11.15;;;8.20;82.80;;;;;;5056587;28;20032;-74
2021/10/25 03:50:37;;;;;;;17.23;12.77;;;8.20;82.90;;;;;;5085440;28;20030;-74
2021/10/25 03:53:15;;;;;;;19.52;13.60;;;8.30;83.10;;;;;;5085737;28;20120;-70
2021/10/25 03:56:00;;;;;;;18.30;12.98;;;8.30;83.30;;;;;;5090232;28;20012;-72
2021/10/25 04:02:21;;;;;;;16.15;11.70;;;8.30;83.30;;;;;;5023057;28;20061;-70
2021/10/25 04:26:48;;;;;;;13.23;11.60;;;8.40;84.10;;;;;;5090606;28;20110;-75
2021/10/25 04:28:58;;;;;;;13.88;10.52;;;8.40;84.20;;;;;;5080958;28;20044;-71
2021/10/25 04:31:23;;;;;;;12.40;10.77;;;8.40;84.30;;;;;;5085355;28;20489;-70
2021/10/25 04:33:49;;;;;;;15.60;12.05;;;8.40;84.40;;;;;;5091905;28;20774;-74
2021/10/25 04:36:15;;;;;;;14.13;11.98;;;8.50;84.50;;;;;;5076354;28;20447;-75
2021/10/25 04:38:41;;;;;;;15.07;11.45;;;8.50;84.50;;;;;;5093651;28;20493;-75
2021/10/25 04:41:07;;;;;;;13.82;11.73;;;8.50;84.50;;;;;;5087130;28;20033;-75
2021/10/25 04:43:33;;;;;;;17.02;11.45;;;8.50;85.10;;;;;;5090540;28;20196;-70
2021/10/25 04:45:58;;;;;;;16.88;11.27;;;8.50;84.60;;;;;;5087761;28;20391;-71
2021/10/25 04:48:24;;;;;;;13.55;11.30;;;8.50;84.70;;;;;;5086044;28;20024;-75
2021/10/25 04:50:49;;;;;;;13.65;10.80;;;8.60;84.80;;;;;;5083080;28;20321;-75
2021/10/25 04:53:15;;;;;;;16.65;11.35;;;8.60;84.80;;;;;;5083143;28;20031;-71
2021/10/25 04:55:41;;;;;;;13.15;10.85;;;8.60;84.90;;;;;;5068351;28;20052;-75
2021/10/25 04:58:07;;;;;;;13.55;10.73;;;8.60;85.00;;;;;;5082852;28;20036;-71
2021/10/25 05:00:33;;;;;;;11.38;9.68;;;8.60;85.00;;;;;;5082142;28;20099;-72
2021/10/25 05:02:59;;;;;;;14.05;9.70;;;8.60;85.10;;;;;;5073747;28;20063;-76
2021/10/25 05:05:25;;;;;;;12.27;9.68;;;8.60;85.20;;;;;;5083633;28;20024;-75
2021/10/25 05:07:51;;;;;;;13.48;9.93;;;8.60;85.20;;;;;;5094519;28;20474;-75
2021/10/25 05:10:17;;;;;;;12.73;9.68;;;8.60;85.20;;;;;;5099328;28;20118;-75
2021/10/25 05:12:43;;;;;;;14.20;9.43;;;8.60;85.20;;;;;;5091870;28;20135;-75
2021/10/25 05:15:09;;;;;;;13.07;9.75;;;8.60;85.30;;;;;;5084846;28;20031;-71
2021/10/25 05:17:34;;;;;;;13.55;9.45;;;8.60;85.20;;;;;;5088088;28;20059;-75
2021/10/25 05:20:00;;;;;;;12.10;9.75;;;8.70;85.30;;;;;;5069798;28;20083;-75
2021/10/25 05:22:26;;;;;;;16.27;10.07;;;8.70;85.30;;;;;;5088481;28;20545;-74
2021/10/25 05:24:52;;;;;;;11.98;9.77;;;8.70;85.40;;;;;;5082214;28;20123;-71
2021/10/25 05:27:20;;;;;;;11.75;9.52;;;8.70;85.40;;;;;;5082484;28;20146;-75
2021/10/25 05:29:46;;;;;;;12.45;9.35;;;8.60;85.30;;;;;;5068716;28;20024;-75
2021/10/25 05:32:13;;;;;;;12.48;9.30;;;8.70;85.50;;;;;;5084774;28;20410;-75
2021/10/25 05:34:39;;;;;;;11.90;9.75;;;8.70;85.60;;;;;;5069668;28;20486;-70
2021/10/25 05:37:05;;;;;;;12.65;9.63;;;8.70;85.50;;;;;;5064626;28;20059;-71
2021/10/25 05:39:30;;;;;;;10.70;9.18;;;8.70;85.60;;;;;;5072989;28;20526;-71
2021/10/25 05:41:56;;;;;;;14.95;9.02;;;8.70;85.70;;;;;;5063440;28;20060;-71
2021/10/25 05:44:22;;;;;;;12.77;9.90;;;8.70;85.80;;;;;;5049426;28;20037;-71
2021/10/25 05:46:48;;;;;;;13.88;9.75;;;8.70;85.70;;;;;;5050153;28;20040;-72
2021/10/25 05:49:14;;;;;;;13.50;9.50;;;8.70;85.80;;;;;;5067951;28;20024;-74
2021/10/25 05:51:40;;;;;;;13.30;9.38;;;8.80;86.00;;;;;;5050614;28;20112;-72
2021/10/25 05:54:07;;;;;;;13.30;9.40;;;8.70;86.00;;;;;;5068290;28;20031;-71
2021/10/25 05:56:33;;;;;;;14.18;9.02;;;8.80;86.20;;;;;;5050319;28;20032;-70
2021/10/25 05:58:59;;;;;;;11.45;9.48;;;8.70;86.20;;;;;;5068252;28;20048;-72
2021/10/25 06:01:34;;;;;;;11.27;9.32;;;8.80;86.40;;;;;;5068209;28;20449;-71
2021/10/25 06:04:05;;;;;;;13.13;10.10;;;8.80;86.50;;;;;;5068433;28;20554;-70
2021/10/25 06:06:30;;;;;;;12.73;9.48;;;8.80;86.60;;;;;;5072303;28;20032;-72
2021/10/25 06:08:56;;;;;;;11.82;9.70;;;8.80;86.70;;;;;;5072974;28;20041;-71
2021/10/25 06:11:22;;;;;;;12.93;9.10;;;8.90;86.80;;;;;;5054288;28;20407;-75
2021/10/25 06:13:47;;;;;;;11.98;9.35;;;8.80;86.70;;;;;;5054570;28;20304;-76
2021/10/25 06:16:19;;;;;;;12.75;8.93;;;8.90;86.90;;;;;;5054558;28;20036;-75
2021/10/25 06:18:45;;;;;;;14.15;9.55;;;8.90;87.00;;;;;;5072275;28;20024;-75
2021/10/25 06:21:11;;;;;;;11.10;8.98;;;8.90;87.00;;;;;;5069789;28;20127;-71
2021/10/25 06:23:38;;;;;;;11.07;9.60;;;8.90;87.00;;;;;;5092852;28;20028;-71
2021/10/25 06:26:05;;;;;;;11.60;9.20;;;8.90;87.10;;;;;;5074634;28;20013;-71
2021/10/25 06:28:32;;;;;;;13.48;8.98;;;8.90;87.00;;;;;;5094243;28;20348;-71
2021/10/25 06:31:02;;;;;;;10.32;8.95;;;9.00;87.10;;;;;;5073153;28;20027;-70
2021/10/25 06:33:29;;;;;;;14.05;9.68;;;9.00;87.20;;;;;;5092913;28;20051;-73
2021/10/25 06:36:05;;;;;;;13.95;9.18;;;9.00;87.20;;;;;;5074000;28;20035;-72
2021/10/25 06:38:35;;;;;;;14.40;9.65;;;9.00;87.20;;;;;;5074055;28;20025;-72
2021/10/25 06:41:02;;;;;;;12.82;8.75;;;9.00;87.90;;;;;;5073899;28;20032;-71
2021/10/25 06:43:28;;;;;;;14.00;9.85;;;9.00;87.50;;;;;;5092427;28;20032;-72
2021/10/25 06:45:55;;;;;;;12.38;9.40;;;9.10;87.60;;;;;;5091394;28;20404;-72
2021/10/25 06:48:22;;;;;;;15.18;9.15;;;9.10;87.60;;;;;;5092669;28;20024;-72
2021/10/25 06:50:48;;;;;;;13.15;8.75;;;9.10;87.70;;;;;;5091189;28;20046;-71
2021/10/25 06:53:16;;;;;;;14.73;9.50;;;9.10;87.60;;;;;;5092410;28;20028;-72
2021/10/25 06:55:43;;;;;;;11.73;8.43;;;9.10;87.70;;;;;;5073504;28;20442;-72
2021/10/25 06:58:09;;;;;;;13.35;9.70;;;9.10;87.70;;;;;;5074408;28;20021;-72
2021/10/25 07:00:35;;;;;;;15.43;9.20;;;9.20;87.90;;;;;;5073019;28;20452;-72
2021/10/25 07:03:01;;;;;;;11.27;8.00;;;9.20;87.90;;;;;;5092128;28;20064;-71
2021/10/25 07:05:30;;;;;;;10.30;7.70;;;9.20;87.90;;;;;;5073121;28;20028;-71
2021/10/25 07:07:56;;;;;;;12.90;8.10;;;9.30;87.90;;;;;;5092426;28;20066;-71
2021/10/25 07:10:22;;;;;;;11.68;7.97;;;9.30;87.90;;;;;;5091102;28;20441;-71
2021/10/25 07:12:48;;;;;;;10.65;7.82;;;9.30;88.00;;;;;;5073471;28;20031;-72
2021/10/25 07:15:16;;;;;;;11.27;7.93;;;9.40;88.00;;;;;;5073193;28;20035;-72
2021/10/25 07:17:53;;;;;;;13.93;7.88;;;9.40;87.90;;;;;;5092055;28;20039;-71
2021/10/25 07:20:34;;;;;;;11.20;6.97;;;9.40;87.90;;;;;;5089888;28;20509;-72
2021/10/25 08:01:37;;;;;;;10.38;7.63;;;9.90;87.80;;;;;;5090247;28;20104;-70
2021/10/25 08:04:33;;;;;;;9.77;6.90;;;9.90;87.70;;;;;;5064727;28;20054;-72
2021/10/25 08:09:54;;;;;;;10.70;7.90;;;9.90;87.80;;;;;;5066376;28;20033;-71
2021/10/25 08:12:23;;;;;;;10.65;7.45;;;9.90;87.80;;;;;;5096040;28;20043;-72
2021/10/25 08:14:54;;;;;;;12.50;6.03;;;9.90;87.80;;;;;;5084569;28;20032;-72
2021/10/25 08:17:22;;;;;;;9.25;7.00;;;9.90;87.80;;;;;;5076264;28;20025;-72
2021/10/25 08:19:50;;;;;;;12.27;7.32;;;9.90;87.90;;;;;;5100451;28;20035;-71
2021/10/25 08:22:17;;;;;;;10.18;7.28;;;10.00;87.90;;;;;;5099494;28;20102;-72
2021/10/25 08:24:52;;;;;;;10.65;7.50;;;10.00;87.70;;;;;;5091624;28;20068;-72
2021/10/25 08:27:20;;;;;;;8.00;6.10;;;10.00;88.00;;;;;;5081956;28;20054;-71
2021/10/25 08:29:48;;;;;;;9.75;7.25;;;10.10;87.90;;;;;;5068443;28;20115;-72
2021/10/25 08:35:24;;;;;;;10.50;7.18;;;10.10;87.90;;;;;;5093689;28;20043;-71
2021/10/25 08:40:38;;;;;;;10.43;7.07;;;10.20;87.70;;;;;;5081634;28;20399;-71
2021/10/25 08:43:04;;;;;;;14.00;7.03;;;10.20;87.80;;;;;;5094115;28;20433;-71
2021/10/25 08:45:33;;;;;;;9.93;7.65;;;10.20;87.50;;;;;;5070406;28;20032;-71
2021/10/25 08:48:03;;;;;;;10.23;7.15;;;10.20;87.60;;;;;;5089273;28;20039;-72
2021/10/25 08:50:35;;;;;;;12.40;7.55;;;10.20;87.70;;;;;;5071103;28;20031;-72
2021/10/25 08:53:03;;;;;;;8.48;7.00;;;10.30;87.60;;;;;;5073884;28;20032;-71
2021/10/25 08:55:30;;;;;;;12.80;7.47;;;10.30;87.20;;;;;;5079667;28;20041;-72
2021/10/25 08:57:55;;;;;;;9.48;7.03;;;10.30;87.00;;;;;;5070134;28;20023;-72
2021/10/25 09:00:35;;;;;;;8.88;6.55;;;10.30;87.00;;;;;;5084473;28;20390;-70
2021/10/25 09:03:02;;;;;;;14.52;7.65;;;10.30;86.90;;;;;;5091320;28;20507;-72
2021/10/25 09:05:29;;;;;;;11.80;7.75;;;10.40;86.90;;;;;;5091940;28;20032;-71
2021/10/25 09:08:07;;;;;;;11.23;6.93;;;10.40;86.70;;;;;;5071427;28;20059;-70
2021/10/25 09:10:38;;;;;;;11.52;7.32;;;10.40;86.80;;;;;;5076987;28;20019;-71
2021/10/25 09:13:10;;;;;;;13.47;7.50;;;10.40;86.60;;;;;;5073158;28;20024;-72
2021/10/25 09:15:41;;;;;;;11.30;6.55;;;10.40;86.60;;;;;;5081306;28;20630;-72
2021/10/25 09:18:13;;;;;;;10.20;7.07;;;10.50;86.70;;;;;;5087463;28;20084;-72
2021/10/25 09:20:50;;;;;;;10.45;7.15;;;10.50;86.90;;;;;;5086028;28;20047;-70
2021/10/25 09:23:21;;;;;;;11.27;7.57;;;10.50;86.90;;;;;;5088027;28;20104;-71
2021/10/25 09:25:56;;;;;;;12.90;7.10;;;10.50;86.90;;;;;;5092929;28;20027;-71
2021/10/25 09:28:27;;;;;;;15.57;8.18;;;10.60;86.80;;;;;;5074709;28;20036;-71
2021/10/25 09:31:02;;;;;;;14.07;7.75;;;10.60;86.60;;;;;;5068325;28;20029;-71
2021/10/25 09:33:36;;;;;;;9.73;7.30;;;10.60;86.50;;;;;;5084931;28;20034;-71
2021/10/25 09:36:06;;;;;;;11.68;7.43;;;10.70;86.70;;;;;;5096471;27;20047;-70
2021/10/25 09:38:38;;;;;;;12.07;7.30;;;10.70;86.70;;;;;;5087868;28;20150;-72
2021/10/25 09:41:31;;;;;;;10.30;7.28;;;10.60;86.50;;;;;;5072454;28;20027;-72
2021/10/25 09:49:55;;;;;;;9.57;7.30;;;10.70;86.70;;;;;;5028061;28;20037;-72
2021/10/25 09:52:43;;;;;;;10.98;7.18;;;10.70;86.60;;;;;;5012015;28;20038;-72
2021/10/25 09:55:16;;;;;;;14.00;7.70;;;10.70;86.50;;;;;;5063707;28;20491;-72
2021/10/25 10:00:14;;;;;;;10.77;6.50;;;10.80;86.40;;;;;;5086591;28;20032;-72
2021/10/25 10:05:00;;;;;;;12.07;7.10;;;10.80;86.00;;;;;;5076586;27;20786;-72
2021/10/25 10:07:27;;;;;;;9.82;6.20;;;10.90;86.60;;;;;;5046509;28;20028;-73
2021/10/25 10:09:54;;;;;;;8.18;6.53;;;10.90;86.70;;;;;;5066769;28;20037;-73
2021/10/25 10:12:21;;;;;;;8.20;6.40;;;10.90;86.70;;;;;;5073198;28;20480;-72
2021/10/25 10:14:52;;;;;;;10.45;6.75;;;11.00;86.70;;;;;;5062222;28;20094;-73
2021/10/25 10:17:33;;;;;;;11.20;6.75;;;11.00;86.80;;;;;;5069054;28;20047;-73
2021/10/25 10:20:36;;;;;;;11.73;7.05;;;11.00;86.70;;;;;;5057763;28;20107;-73
2021/10/25 10:23:07;;;;;;;9.52;6.97;;;11.00;86.50;;;;;;5052982;28;20041;-73
2021/10/25 10:25:35;;;;;;;7.90;6.33;;;11.00;86.60;;;;;;5054623;28;20116;-72
2021/10/25 10:28:09;;;;;;;9.57;7.28;;;11.10;86.80;;;;;;5076772;28;20021;-72
2021/10/25 10:30:53;;;;;;;10.63;7.43;;;11.10;87.00;;;;;;5050021;28;20105;-71
2021/10/25 10:33:43;;;;;;;9.68;6.45;;;11.10;86.60;;;;;;5069629;28;20025;-72
2021/10/25 10:36:15;;;;;;;16.33;7.40;;;11.10;86.60;;;;;;5056661;28;20490;-71
2021/10/25 10:39:00;;;;;;;9.07;7.27;;;11.10;86.70;;;;;;5056547;28;20036;-72
2021/10/25 10:41:39;;;;;;;10.13;7.10;;;11.20;86.60;;;;;;5079149;28;20638;-73
2021/10/25 10:44:11;;;;;;;9.45;7.97;;;11.20;86.60;;;;;;5067241;28;20031;-73
2021/10/25 10:46:50;;;;;;;11.70;7.63;;;11.20;86.50;;;;;;5073112;28;20025;-72
2021/10/25 10:49:23;;;;;;;10.48;6.47;;;11.20;86.60;;;;;;5057593;28;20025;-71
2021/10/25 10:52:06;;;;;;;;;;;11.30;86.50;;;;;;5066976;28;20033;-72
2021/10/25 11:00:12;;;;;;;8.95;6.80;;;11.30;86.00;;;;;;5069203;28;20359;-72
2021/10/25 11:02:55;;;;;;;10.48;6.82;;;11.40;85.90;;;;;;5060737;28;20033;-71
2021/10/25 11:05:30;;;;;;;8.18;6.40;;;11.40;86.00;;;;;;5062818;28;20491;-71
2021/10/25 11:08:02;;;;;;;8.57;6.50;;;11.50;86.00;;;;;;5070030;28;20025;-71
2021/10/25 11:10:31;;;;;;;7.57;6.30;;;11.50;85.90;;;;;;5065406;28;20025;-72
2021/10/25 11:13:02;;;;;;;8.98;6.78;;;11.50;85.70;;;;;;5067109;28;20364;-72
2021/10/25 11:15:36;;;;;;;9.07;7.07;;;11.60;85.70;;;;;;5051901;28;20063;-73
2021/10/25 11:18:03;;;;;;;9.18;6.60;;;11.60;85.50;;;;;;5038472;28;20052;-73
2021/10/25 11:20:28;;;;;;;7.10;6.35;;;11.60;86.20;;;;;;5057875;28;20104;-72
2021/10/25 11:23:02;;;;;;;9.05;6.32;;;11.70;85.60;;;;;;5051224;28;20231;-71
2021/10/25 11:25:37;;;;;;;9.63;6.10;;;11.70;85.50;;;;;;5046377;28;20026;-72
2021/10/25 11:28:18;;;;;;;9.57;6.75;;;11.80;85.40;;;;;;5049729;28;20033;-71
2021/10/25 11:30:45;;;;;;;12.25;6.18;;;11.80;85.30;;;;;;5050401;28;20029;-73
2021/10/25 11:33:11;;;;;;;9.45;5.93;;;11.80;85.50;;;;;;5049671;28;20133;-72
2021/10/25 11:35:53;;;;;;;11.80;6.40;;;11.80;85.30;;;;;;5062742;28;20047;-71
2021/10/25 11:38:19;;;;;;;9.07;6.03;;;11.80;85.30;;;;;;5030909;28;20346;-72
2021/10/25 11:40:50;;;;;;;8.25;6.00;;;11.90;85.20;;;;;;5036051;28;20090;-73
2021/10/25 11:43:16;;;;;;;9.98;6.30;;;11.90;85.00;;;;;;5052269;28;20024;-73
2021/10/25 11:45:43;;;;;;;11.30;6.70;;;11.90;85.00;;;;;;5038311;28;20422;-71
2021/10/25 11:48:28;;;;;;;8.73;6.88;;;12.00;84.70;;;;;;5059134;28;20495;-71
2021/10/25 11:51:06;;;;;;;11.43;6.25;;;12.00;84.90;;;;;;5043662;28;20050;-72
2021/10/25 11:53:32;;;;;;;7.05;6.32;;;12.00;84.60;;;;;;5059836;28;20129;-73
2021/10/25 11:55:58;;;;;;;9.23;5.53;;;12.10;84.50;;;;;;5074997;28;20029;-72
2021/10/25 11:58:26;;;;;;;6.70;5.55;;;12.10;84.80;;;;;;5040418;28;20032;-73
2021/10/25 12:00:54;;;;;;;9.32;6.53;;;12.10;84.80;;;;;;5045123;28;20075;-73
2021/10/25 12:03:24;;;;;;;8.60;6.40;;;12.20;84.60;;;;;;5040284;28;20044;-72
2021/10/25 12:05:50;;;;;;;8.50;6.05;;;12.20;84.60;;;;;;5050167;28;20036;-72
2021/10/25 12:08:17;;;;;;;10.02;5.70;;;12.20;84.70;;;;;;5042793;28;20343;-72
2021/10/25 12:10:46;;;;;;;10.68;7.05;;;12.20;84.50;;;;;;5050236;28;20033;-72
2021/10/25 12:13:12;;;;;;;8.90;6.80;;;12.20;84.70;;;;;;5050762;28;20055;-72
2021/10/25 12:15:54;;;;;;;11.13;6.78;;;12.30;85.00;;;;;;5045503;28;20036;-72
2021/10/25 12:18:20;;;;;;;8.02;6.05;;;12.30;84.80;;;;;;5036688;28;20036;-72
2021/10/25 12:20:48;;;;;;;10.40;6.22;;;12.50;84.70;;;;;;5029832;28;20033;-71
2021/10/25 12:23:20;;;;;;;10.35;6.22;;;12.60;84.50;;;;;;5041252;28;20068;-71
2021/10/25 12:25:57;;;;;;;8.93;6.10;;;12.80;84.20;;;;;;5045774;28;20079;-71
2021/10/25 12:28:24;;;;;;;7.95;5.97;;;12.90;83.30;;;;;;5042835;28;20280;-72
2021/10/25 12:31:03;;;;;;;9.05;6.45;;;13.00;83.20;;;;;;5045377;28;20495;-72
2021/10/25 12:33:29;;;;;;;6.53;5.47;;;13.10;83.10;;;;;;5055252;28;20479;-72
2021/10/25 12:35:55;;;;;;;11.38;6.05;;;13.50;82.60;;;;;;5029572;28;20127;-71
2021/10/25 12:38:22;;;;;;;9.93;5.65;;;13.90;81.00;;;;;;5041037;28;20041;-71
2021/10/25 12:41:01;;;;;;;6.55;5.05;;;14.30;79.30;;;;;;5043882;28;20114;-71
2021/10/25 12:43:41;;;;;;;11.27;6.05;;;14.40;79.00;;;;;;5039245;28;20040;-72
2021/10/25 12:46:10;;;;;;;9.98;5.75;;;14.50;78.60;;;;;;5047335;28;20017;-72
2021/10/25 12:48:48;;;;;;;9.27;5.82;;;14.70;78.20;;;;;;5044825;28;20026;-72
2021/10/25 12:51:14;;;;;;;7.50;5.28;;;15.00;76.50;;;;;;5044347;28;20017;-73
2021/10/25 12:53:45;;;;;;;9.52;6.15;;;15.10;76.10;;;;;;5035237;28;20052;-73
2021/10/25 12:56:11;;;;;;;8.20;5.90;;;15.00;75.70;;;;;;5039868;28;20044;-72
2021/10/25 12:58:37;;;;;;;10.80;5.90;;;14.90;76.20;;;;;;5036162;28;20044;-72
2021/10/25 13:01:14;;;;;;;8.48;5.72;;;15.00;75.90;;;;;;5043123;28;20025;-72
2021/10/25 13:03:47;;;;;;;8.05;6.20;;;15.00;75.90;;;;;;5039276;28;20041;-72
2021/10/25 13:06:14;;;;;;;13.88;5.85;;;14.90;75.70;;;;;;5037952;28;20045;-73
2021/10/25 13:08:40;;;;;;;8.35;5.45;;;14.80;76.20;;;;;;5045126;28;20025;-72
2021/10/25 13:11:09;;;;;;;10.52;6.15;;;14.80;76.50;;;;;;5039968;28;20055;-72
2021/10/25 13:13:35;;;;;;;7.32;5.35;;;15.00;76.30;;;;;;5044788;28;20033;-71
2021/10/25 13:16:03;;;;;;;6.95;5.90;;;15.00;76.00;;;;;;5048056;28;20040;-71
2021/10/25 13:18:29;;;;;;;10.55;6.10;;;14.90;76.60;;;;;;5038893;28;20068;-71
2021/10/25 13:20:56;;;;;;;8.15;5.75;;;14.70;77.10;;;;;;5045439;28;20128;-72
2021/10/25 13:23:23;;;;;;;8.25;5.80;;;14.60;77.20;;;;;;5038438;28;20040;-73
2021/10/25 13:25:50;;;;;;;7.50;6.18;;;14.40;77.70;;;;;;5043843;28;20508;-71
2021/10/25 13:28:16;;;;;;;9.35;6.53;;;14.30;78.10;;;;;;5035541;28;20489;-72
2021/10/25 13:30:41;;;;;;;7.22;6.05;;;14.20;78.50;;;;;;5038183;28;20030;-72
2021/10/25 13:33:07;;;;;;;9.45;6.22;;;14.10;78.90;;;;;;5037202;28;20037;-72
2021/10/25 13:35:33;;;;;;;13.05;6.28;;;14.10;78.90;;;;;;5036867;28;20018;-71
2021/10/25 13:37:59;;;;;;;10.18;6.10;;;14.40;78.50;;;;;;5039920;28;20087;-71
2021/10/25 13:40:30;;;;;;;9.98;6.10;;;14.60;78.60;;;;;;5044781;28;20041;-73
2021/10/25 13:42:58;;;;;;;7.68;5.30;;;14.70;77.60;;;;;;5035572;28;20143;-71
2021/10/25 13:45:25;;;;;;;8.23;5.72;;;14.70;77.60;;;;;;5044860;28;20025;-71
2021/10/25 13:47:51;;;;;;;7.90;5.78;;;14.60;77.40;;;;;;5044388;28;20045;-72
2021/10/25 13:50:18;;;;;;;8.82;5.93;;;14.40;77.60;;;;;;5043371;28;20532;-72
2021/10/25 13:52:44;;;;;;;9.60;6.10;;;14.30;77.80;;;;;;5046674;28;20639;-71
2021/10/25 13:55:11;;;;;;;7.82;6.10;;;14.10;78.40;;;;;;5044433;28;20112;-73
2021/10/25 13:57:38;;;;;;;11.52;5.90;;;14.10;78.50;;;;;;5049765;28;20036;-73
2021/10/25 14:00:10;;;;;;;8.30;6.50;;;14.10;78.80;;;;;;5038249;28;20021;-72
2021/10/25 14:02:37;;;;;;;10.33;6.80;;;14.20;78.80;;;;;;5047570;28;20449;-71
2021/10/25 14:05:04;;;;;;;7.60;5.57;;;14.20;78.80;;;;;;5040910;28;20044;-71
2021/10/25 14:07:32;;;;;;;8.20;6.72;;;14.20;79.10;;;;;;5050011;28;20029;-71
2021/10/25 14:10:16;;;;;;;8.13;5.95;;;14.30;78.60;;;;;;5051588;28;20032;-71
2021/10/25 14:12:42;;;;;;;8.07;5.88;;;14.70;78.40;;;;;;5041599;28;20025;-72
2021/10/25 14:17:42;;;;;;;9.63;5.70;;;16.60;73.10;;;;;;5041611;28;20044;-74
2021/10/25 14:20:08;;;;;;;8.98;6.50;;;16.90;72.10;;;;;;5024906;28;20029;-73
2021/10/25 14:22:34;;;;;;;9.15;5.95;;;16.80;71.10;;;;;;5042811;28;20030;-72
2021/10/25 14:24:59;;;;;;;9.07;6.10;;;16.40;71.50;;;;;;5040323;28;20087;-72
2021/10/25 14:27:25;;;;;;;7.68;5.60;;;16.00;72.80;;;;;;5042946;28;20036;-73